Terminal Aerodrome Forecast
Issued by NWS

Home | Current Version | Previous Version | Text Only | Print | Product List | Glossary On
Versions: 1 2 3 4 5 6 7 8 9 10 11 12 13 14 15 16 17
691
FTAK31 PAJN 251742
TAFAWG
TAF
PAWG 251742Z 2518/2618 VRB03KT P6SM -SHRA SCT005 BKN015 OVC035
      TEMPO 2518/2522 5SM -SHRA BR BKN005 OVC010
     FM252200 08005KT P6SM -SHRA SCT015 OVC035
     FM260600 VRB04KT P6SM VCSH SCT015 OVC035
      AMD LTD TO CLD VIS AND WIND 2606/2615=

USA.gov is the U.S. government's official web portal to all federal, state and local government web resources and services.